Tiempo atmosférico en la estación meteorológica de Yecla, Murcia (640 m.)



Fecha
DESCASC
Temp. máxima en grados centígrados (hora)
DESCASC
Temp. mínima en grados centígrados (hora)
DESCASC
Temp. media en grados centígrados
DESCASC
Racha de viento máxima en m/sg (hora)
DESCASC
Velocidad máxima media en intervalos de 10 minutos(hora)
DESCASC
Precipitaciones diarias en mm
DESCASC
Precipitaciones de 00:00 a 06:00 en mm
DESCASC
Precipitaciones de 06:00 a 12:00 en mm
DESCASC
Precipitaciones de 12:00 a 18:00 en mm
DESCASC
Precipitaciones de 18:00 a 24:00 en mm
DESCASC
15-08-2019 34.7 (15:50) 15.9 (08:00) 25.3 9.72 (15:40) 5.56 (18:00) 0 0 0 0 0
14-08-2019 34 (17:00) 14.7 (00:00) 24.3 9.72 (13:30) 5.83 (19:00) 0 0 0 0 0
13-08-2019 28.5 (14:50) 19.3 (00:00) 23.9 8.61 (19:10) 5 (19:10) 0 0 0 0 0
12-08-2019 32.1 (17:40) 18.8 (00:00) 25.4 14.44 (05:30) 8.33 (05:50) 0 0 0 0 0
11-08-2019 36.5 (17:10) 19.4 (00:00) 27.9 10.83 (18:20) 5 (23:50) 0 0 0 0 0
10-08-2019 38 (17:20) 23.1 (00:00) 30.6 11.39 (08:40) 6.67 (08:50) 0 0 0 0 0
09-08-2019 39.4 (17:50) 16 (00:00) 27.7 9.72 (13:50) 5.56 (12:40) 0 0 0 0 0
08-08-2019 37.5 (18:30) 23 (00:00) 30.3 12.5 (04:20) 7.78 (04:00) 0 0 0 0 0
07-08-2019 36.9 (17:40) 17.3 (00:00) 27.1 10.28 (11:50) 5 (18:40) 0 0 0 0 0
06-08-2019 38.8 (17:40) 17.9 (00:00) 28.3 10.28 (17:00) 5.28 (18:00) 0 0 0 0 0
05-08-2019 38 (16:40) 18.1 (00:00) 28.1 8.61 (18:00) 4.72 (18:10) 0 0 0 0 0
04-08-2019 36.3 (16:40) 17.1 (00:00) 26.7 7.5 (19:10) 5 (19:10) 0 0 0 0 0
03-08-2019 34.4 (17:30) 18.9 (00:00) 26.7 8.06 (15:50) 3.61 (15:20) 0 0 0 0 0
02-08-2019 34 (15:10) 17.3 (00:00) 25.6 8.06 (17:00) 4.44 (18:20) 0 0 0 0 0
01-08-2019 35.5 (17:50) 17.6 (00:00) 26.6 8.33 (20:20) 5.28 (20:20) 0 0 0 0 0
31-07-2019 28.7 (13:50) 19.1 (00:00) 23.9 11.11 (18:50) 7.5 (18:50) 0 0 0 0 0
30-07-2019 33.2 (15:30) 19.1 (00:00) 26.2 11.39 (16:40) 6.39 (16:40) 0 0 0 0 0
29-07-2019 34.9 (16:30) 15.4 (00:00) 25.2 8.61 (19:30) 5.83 (19:30) 0 0 0 0 0
28-07-2019 32 (17:20) 18.4 (00:00) 25.2 13.33 (04:10) 7.5 (04:30) 0 0 0 0 0
27-07-2019 31.7 (14:20) 20.5 (00:00) 26.1 17.5 (16:30) 8.89 (16:10) 0 0 0 0 0
26-07-2019 36 (16:10) 16.7 (00:00) 26.4 -- (--) -- (--) 0 0 0 0 0
25-07-2019 35.2 (15:10) 15.7 (00:00) 25.5 8.89 (17:50) 4.72 (17:50) 0 0 0 0 0
24-07-2019 35.6 (15:40) 16.4 (00:00) 26 9.44 (15:30) 5 (15:30) 0 0 0 0 0
23-07-2019 36.1 (16:30) 15.8 (00:00) 25.9 8.89 (17:20) 5 (14:30) 0 0 0 0 0
22-07-2019 34.8 (15:40) 17.8 (00:00) 26.3 10.28 (16:00) 5.56 (16:00) 0 0 0 0 0
21-07-2019 33.7 (16:20) 17.4 (00:00) 25.6 13.06 (16:50) 8.06 (16:50) 0 0 0 0 0
20-07-2019 35.4 (16:10) 16.5 (00:00) 26 8.06 (16:20) 5 (17:00) 0 0 0 0 0
19-07-2019 34.2 (16:20) 15.4 (00:00) 24.8 9.17 (17:50) 4.17 (18:10) 0 0 0 0 0

Gráficas

Temp. máximas Temp. mínimas Temp. medias Precipitaciones Rachas de viento máximas Velocidades máximas media en intervalos de 10 minutos

Datos horarios

Fecha y hora oficial Temperatura (ºC) Velocidad del viento (km/h) Dirección del viento Racha (km/h) Dirección de racha Precipitación (mm) Presión (hPa) Tendencia (hPa) Humedad (%)
2019-08-17 23:00:00 26.8 3 Oeste 15 Sur 0 942.4 1 34
2019-08-17 22:00:00 28.6 10 Sur 15 Sur 0 941.9 -0.1 29
2019-08-17 21:00:00 30.8 7 Sudoeste 26 Sur 0 941.5 -0.5 25
2019-08-17 20:00:00 32.8 14 Sur 26 Sudeste 0 941.4 -0.8 24
2019-08-17 19:00:00 34.6 16 Sur 32 Sudoeste 0 942 -0.8 21
2019-08-17 18:00:00 35.8 18 Sur 30 Sudeste 0 942 -1.5 19
2019-08-17 17:00:00 36.4 17 Sudeste 35 Sudeste 0 942.2 -1.7 17
2019-08-17 16:00:00 36.9 14 Sur 30 Sur 0 942.8 -1.5 16
2019-08-17 15:00:00 36.7 7 Sudeste 23 Sudoeste 0 943.5 -1.4 15
2019-08-17 14:00:00 35.4 9 Sur 22 Sur 0 943.9 -1.1 18
2019-08-17 13:00:00 33.4 12 Sur 24 Sur 0 944.3 -0.7 23
2019-08-17 12:00:00 31.1 10 Sur 17 Sur 0 944.9 0 26
2019-08-17 11:00:00 28.3 5 Nordeste 9 Nordeste 0 945 0.4 37
2019-08-17 10:00:00 25.1 4 Este 8 Este 0 945 0.8 49
2019-08-17 09:00:00 20.9 3 Sudeste 6 Sudoeste 0 944.9 0.8 61
2019-08-17 08:00:00 16.7 5 Oeste 8 Oeste 0 944.6 0.5 71
2019-08-17 07:00:00 16.7 4 Sudoeste 7 Oeste 0 944.2 -0.2 69
2019-08-17 06:00:00 17.3 3 Sudoeste 6 Sudoeste 0 944.1 -0.5 68
2019-08-17 05:00:00 18.4 2 Oeste 7 Sudoeste 0 944.1 -0.9 64
2019-08-17 04:00:00 19.3 3 Sudoeste 5 Sur 0 944.4 -0.8 64
2019-08-17 03:00:00 20.2 0 Calma 8 Oeste 0 944.6 -0.6 60
2019-08-17 02:00:00 20.8 3 Sudoeste 10 Sudoeste 0 945 -0.2 57
2019-08-17 01:00:00 22.1 4 Oeste 11 Oeste 0 945.2 0.4 55
2019-08-17 00:00:00 23 6 Sur 13 Sudoeste 0 945.2 1 54
2019-08-16 23:00:00 24.5 9 Sudoeste 13 Sudoeste 0 945.2 1.5 50
2019-08-16 22:00:00 25.4 10 Sudoeste 18 Sur 0 944.8 1 38
2019-08-16 21:00:00 27.6 9 Sur 23 Sudeste 0 944.2 0.4 29
2019-08-16 20:00:00 30 15 Sur 28 Sudeste 0 943.7 -0.7 27
2019-08-16 19:00:00 32 15 Sur 27 Sur 0 943.8 -1 26
2019-08-16 18:00:00 32.9 15 Sur 28 Sudeste 0 943.8 -1.5 24
2019-08-16 17:00:00 33.7 12 Sur 30 Sudeste 0 944.4 -1.4 23
2019-08-16 16:00:00 33.6 16 Sur 31 Sur 0 944.8 -1.7 20
2019-08-16 15:00:00 33.6 14 Sur 27 Sur 0 945.3 -1.6 18
2019-08-16 14:00:00 32.3 12 Sudoeste 21 Sur 0 945.8 -1 18
2019-08-16 13:00:00 30.7 12 Sudeste 24 Sudeste 0 946.5 -0.5 21
2019-08-16 12:00:00 28.9 8 Sur 17 Sudoeste 0 946.9 0.1 25
2019-08-16 11:00:00 26.2 9 Sur 17 Sudoeste 0 946.8 0.3 30
2019-08-16 10:00:00 23.3 2 Sur 6 Nordeste 0 947 1 50
2019-08-16 09:00:00 20 2 Sudoeste 9 Oeste 0 946.8 0.9 80
2019-08-16 08:00:00 17.3 7 Oeste 11 Oeste 0 946.5 0.5 87
2019-08-16 07:00:00 17.4 6 Oeste 9 Oeste 0 946 0 86
2019-08-16 06:00:00 17.4 6 Sudoeste 9 Oeste 0 945.9 -0.2 82
2019-08-16 05:00:00 17.8 4 Oeste 8 Sudoeste 0 946 -0.4 79
2019-08-16 04:00:00 18.4 4 Oeste 9 Oeste 0 946 -0.4 71
2019-08-16 03:00:00 18.9 5 Oeste 8 Oeste 0 946.1 -0.2 66
2019-08-16 02:00:00 19.3 2 Oeste 8 Sudoeste 0 946.4 0.1 58
2019-08-16 01:00:00 20.1 5 Oeste 11 Oeste 0 946.4 0.7 52
2019-08-16 00:00:00 22 0 Calma 10 Sudoeste 0 946.3 0.9 49
2019-08-15 23:00:00 23.7 5 Sudoeste 15 Sudoeste 0 946.3 1.5 45
2019-08-15 22:00:00 25 8 Sudoeste 21 Sudoeste 0 945.7 1.4 42
2019-08-15 21:00:00 26.4 10 Sur 26 Sur 0 945.4 1.2 40
2019-08-15 20:00:00 29.2 13 Sudeste 32 Sur 0 944.8 0.4 34
2019-08-15 19:00:00 31.3 14 Sur 30 Sudeste 0 944.3 -0.4 30
2019-08-15 18:00:00 32.4 20 Sur 35 Sudeste 0 944.2 -1 27
2019-08-15 17:00:00 33.5 18 Sur 35 Sudeste 0 944.4 -1.5 25
2019-08-15 16:00:00 34.4 14 Sur -- -- 0 944.7 -1.7 20
2019-08-15 15:00:00 33.5 14 Sudoeste 27 Sudoeste 0 945.2 -1.6 23
2019-08-15 14:00:00 32.6 11 Sur 24 Sudoeste 0 945.9 -0.8 27
2019-08-15 13:00:00 30.3 12 Sur 26 Sudeste 0 946.4 -0.4 33
2019-08-15 12:00:00 28.9 10 Sur 19 Sur 0 946.8 0.2 37
2019-08-15 11:00:00 27.1 6 Sudeste 15 Sudeste 0 946.7 0.3 45
2019-08-15 10:00:00 23.6 3 Nordeste 6 Norte 0 946.8 0.9 62
2019-08-15 09:00:00 19.6 2 Sudoeste 4 Sudoeste 0 946.6 0.9 77
2019-08-15 08:00:00 16 0 Calma 5 Sudoeste 0 946.4 0.8 84
2019-08-15 07:00:00 16.9 0 Calma 11 Oeste 0 945.9 0.1 82
2019-08-15 06:00:00 17.2 8 Oeste 10 Sudoeste 0 945.7 -0.4 81
2019-08-15 05:00:00 17.8 3 Oeste 8 Oeste 0 945.6 -0.8 79
2019-08-15 04:00:00 18.8 3 Oeste 10 Sudoeste 0 945.8 -0.7 76
2019-08-15 03:00:00 19.3 4 Oeste 10 Oeste 0 946.1 -0.3 73
2019-08-15 02:00:00 20.5 9 Oeste 12 Oeste 0 946.4 0.1 71
2019-08-15 01:00:00 21.7 2 Noroeste 10 Sudoeste 0 946.5 1 69
2019-08-15 00:00:00 21.9 5 Sudoeste 6 Oeste 0 946.4 1.4 65
2019-08-14 23:00:00 23.9 3 Sudeste 13 Sur 0 946.3 1.6 60
2019-08-14 22:00:00 25.4 10 Sudoeste 16 Sudoeste 0 945.5 1.1 56
2019-08-14 21:00:00 27.2 10 Sur 26 Sur 0 945 0.6 50
2019-08-14 20:00:00 28.6 15 Sudeste 30 Sudeste 0 944.7 -0.3 44
2019-08-14 19:00:00 30.6 21 Sur 32 Sur 0 944.4 -1 39
2019-08-14 18:00:00 33.8 10 Sudoeste 35 Oeste 0 944.4 -1.7 16
2019-08-14 17:00:00 33.8 12 Oeste 21 Oeste 0 945 -1.8 16
2019-08-14 16:00:00 32.4 7 Sudeste -- -- 0 945.4 -1.7 20
2019-08-14 15:00:00 31.6 6 Sudoeste 19 Sudoeste 0 946.1 -1.5 26
2019-08-14 14:00:00 29.8 12 Oeste 35 Sudoeste 0 946.8 -0.9 34
2019-08-14 13:00:00 28.4 10 Sudoeste 20 Sur 0 947.1 -0.5 43
2019-08-14 12:00:00 26.4 9 Sur 22 Sudeste 0 947.6 -0.1 50
2019-08-14 11:00:00 24.8 4 Sudeste 12 Este 0 947.7 0.2 55
2019-08-14 10:00:00 21.6 4 Este 9 Nordeste 0 947.6 0.5 64
2019-08-14 09:00:00 18 3 Sudeste 5 Sudeste 0 947.7 0.8 78
2019-08-14 08:00:00 15.2 4 Sudoeste 11 Oeste 0 947.5 0.7 83
2019-08-14 07:00:00 15 6 Oeste 9 Oeste 0 947.1 0.1 82
2019-08-14 06:00:00 16 4 Oeste 11 Oeste 0 946.9 -0.2 79
2019-08-14 05:00:00 16 5 Oeste 13 Oeste 0 946.8 -0.6 79
2019-08-14 04:00:00 16.9 10 Oeste 13 Oeste 0 947 -0.2 79
2019-08-14 03:00:00 17.4 5 Oeste 9 Oeste 0 947.1 0.1 77
2019-08-14 02:00:00 17.8 3 Sudoeste 7 Oeste 0 947.4 0.6 73
2019-08-14 01:00:00 19 4 Sudoeste 14 Sudoeste 0 947.2 1 72
2019-08-14 00:00:00 20.1 8 Sudoeste 13 Sudoeste 0 947 1.2 70
2019-08-13 23:00:00 21 8 Oeste 15 Sudoeste 0 946.8 1.9 66
2019-08-13 22:00:00 21.9 8 Sudoeste 18 Sudeste 0 946.2 1.8 63
2019-08-13 21:00:00 23.1 9 Sur 26 Sur 0 945.8 1.6 59
2019-08-13 20:00:00 25.3 14 Sudeste 31 Sudeste 0 944.9 0.3 51
2019-08-13 19:00:00 26.9 17 Sudeste 30 Sur 0 944.4 -0.7 43
2019-08-13 18:00:00 27.9 16 Sur 28 Sur 0 944.2 -1.4 41
2019-08-13 17:00:00 27.4 10 Sudoeste 28 Sudeste 0 944.6 -1.5 40
2019-08-13 16:00:00 27.6 14 Sudeste 26 Sur 0 945.1 -1.4 41
2019-08-13 15:00:00 27.2 13 Sudeste 23 Sudeste 0 945.6 -1 44
2019-08-13 14:00:00 27.7 9 Sudeste 23 Este 0 946.1 -0.4 42
2019-08-13 13:00:00 24.7 9 Este 22 Nordeste 0 946.5 0.1 50
2019-08-13 12:00:00 24.3 8 Nordeste 21 Este 0 946.6 0.5 52
2019-08-13 11:00:00 23 14 Nordeste 24 Este 0 946.5 0.7 58
2019-08-13 10:00:00 22.3 14 Nordeste 22 Nordeste 0 946.4 1 65
2019-08-13 09:00:00 20.4 12 Nordeste 21 Nordeste 0 946.1 0.8 76
2019-08-13 08:00:00 19.3 13 Nordeste 23 Nordeste 0 945.8 0.4 79
2019-08-13 07:00:00 19.3 10 Nordeste 25 Nordeste 0 945.4 -0.5 81
2019-08-13 06:00:00 19.5 13 Nordeste 27 Nordeste 0 945.3 -0.9 79
2019-08-13 05:00:00 19.4 13 Nordeste 21 Nordeste 0 945.4 -1.1 81
2019-08-13 04:00:00 19.4 10 Nordeste 19 Nordeste 0 945.9 -0.3 81
2019-08-13 03:00:00 20.2 9 Nordeste 15 Nordeste 0 946.2 0.5 80
2019-08-13 02:00:00 20.4 10 Nordeste 21 Nordeste 0 946.5 1.3 80
2019-08-13 01:00:00 20.7 13 Nordeste 26 Nordeste 0 946.2 2 80
2019-08-13 00:00:00 21.1 14 Nordeste 29 Nordeste 0 945.7 2.6 77
2019-08-12 23:00:00 21.6 20 Nordeste 32 Nordeste 0 945.2 3.1 73
2019-08-12 22:00:00 22.4 16 Nordeste 31 Nordeste 0 944.2 2.4 69
2019-08-12 21:00:00 23.8 22 Nordeste 36 Nordeste 0 943.1 1.5 62
2019-08-12 20:00:00 27 22 Nordeste 35 Nordeste 0 942.1 0.1 44
2019-08-12 19:00:00 28.9 22 Nordeste 37 Nordeste 0 941.8 -0.5 37
2019-08-12 18:00:00 30.6 12 Este 23 Este 0 941.6 -1 30
2019-08-12 17:00:00 31.6 6 Norte 18 Este 0 942 -1.1 13
2019-08-12 16:00:00 31.1 9 Nordeste 22 Nordeste 0 942.3 -1.2 20
2019-08-12 15:00:00 31.9 7 Nordeste 27 Nordeste 0 942.6 -1 15
2019-08-12 14:00:00 30.9 6 Sudoeste 23 Norte 0 943.1 -0.4 14
2019-08-12 13:00:00 29.7 8 Norte 26 Nordeste 0 943.5 0.4 14
2019-08-12 12:00:00 27.9 8 Noroeste 29 Norte 0 943.6 0.7 18
2019-08-12 11:00:00 25.4 14 Norte 34 Norte 0 943.5 1.2 21
2019-08-12 10:00:00 24.2 10 Noroeste 19 Noroeste 0 943.1 1.6 22
2019-08-12 09:00:00 21.8 6 Sur 15 Sudoeste 0 942.9 1.4 25
2019-08-12 08:00:00 18.8 8 Sur 45 Noroeste 0 942.3 0.7 29
2019-08-12 07:00:00 21.8 28 Noroeste 46 Norte 0 941.5 -0.2 24
2019-08-12 06:00:00 22.5 29 Noroeste 52 Noroeste 0 941.5 -0.6 24
2019-08-12 05:00:00 22.8 26 Noroeste 46 Noroeste 0 941.6 -0.9 23
2019-08-12 04:00:00 23.9 26 Noroeste 46 Noroeste 0 941.7 -1.2 21
2019-08-12 03:00:00 25 23 Noroeste 42 Noroeste 0 942.1 -0.6 16
2019-08-12 02:00:00 25.9 23 Noroeste 38 Oeste 0 942.5 0 14
2019-08-12 01:00:00 26.9 22 Noroeste 40 Noroeste 0 942.9 1.1 14
2019-08-12 00:00:00 28.1 17 Noroeste 34 Noroeste 0 942.7 1.8 14
2019-08-11 23:00:00 28.6 8 Norte 30 Oeste 0 942.5 2 14
2019-08-11 22:00:00 30 14 Noroeste 24 Oeste 0 941.8 1.3 14
2019-08-11 21:00:00 31.6 10 Nordeste 28 Norte 0 940.9 0.6 15
2019-08-11 20:00:00 32.4 12 Nordeste 28 Nordeste 0 940.5 -0.1 14
2019-08-11 19:00:00 34.2 12 Norte 39 Nordeste 0 940.5 -0.6 13
2019-08-11 18:00:00 35.5 11 Noroeste 36 Oeste 0 940.3 -1.4 12
2019-08-11 17:00:00 36.2 11 Noroeste 25 Noroeste 0 940.6 -1.8 15
2019-08-11 16:00:00 35.7 10 Sudoeste 22 Sudoeste 0 941.1 -1.7 18
2019-08-11 15:00:00 35 8 Sur 34 Oeste 0 941.7 -1.2 19
2019-08-11 14:00:00 34.1 6 Oeste 23 Oeste 0 942.4 -0.7 20
2019-08-11 13:00:00 32.2 10 Sur 30 Oeste 0 942.8 -0.7 23
2019-08-11 12:00:00 31 7 Oeste 16 Noroeste 0 942.9 -0.5 27
2019-08-11 11:00:00 27.3 13 Nordeste 26 Nordeste 0 943.1 0.2 37
2019-08-11 10:00:00 24.5 16 Norte 28 Norte 0 943.5 0.8 66
2019-08-11 09:00:00 23 0 Calma 8 Sudoeste 0 943.4 1.2 70
2019-08-11 08:00:00 19.9 5 Sudoeste 9 Oeste 0 942.9 0.6 71
2019-08-11 07:00:00 19.7 6 Sudoeste 10 Oeste 0 942.7 -0.1 71
2019-08-11 06:00:00 19.8 5 Sudoeste 9 Oeste 0 942.2 -1.3 66
2019-08-11 05:00:00 20.2 6 Sudoeste 8 Sudoeste 0 942.3 -1.6 62
2019-08-11 04:00:00 20.9 4 Oeste 8 Oeste 0 942.8 -1 58
2019-08-11 03:00:00 22.1 3 Sudoeste 11 Oeste 0 943.5 -0.5 54
2019-08-11 02:00:00 24.2 9 Oeste 12 Sudoeste 0 943.9 -0.2 47
2019-08-11 01:00:00 24.2 7 Sudoeste 12 Oeste 0 943.8 0.3 48
2019-08-11 00:00:00 25.8 10 Oeste 14 Oeste 0 944 0.9 44
2019-08-10 23:00:00 26.3 6 Sudoeste 11 Oeste 0 944.1 1.2 43
2019-08-10 22:00:00 27.8 6 Sudoeste 14 Sur 0 943.5 0.6 39
2019-08-10 21:00:00 29.7 10 Sur 19 Sudeste 0 943.1 0.3 36
2019-08-10 20:00:00 32.3 13 Sur 28 Sur 0 942.9 -0.3 31
2019-08-10 19:00:00 34.4 17 Sur 30 Sur 0 942.9 -0.9 27
2019-08-10 18:00:00 36.2 19 Sudeste -- -- 0 942.8 -1.6 23
2019-08-10 17:00:00 37.7 11 Sur -- -- 0 943.2 -1.9 15
2019-08-10 16:00:00 37.4 13 Sur 28 Sudeste 0 943.8 -1.7 15
2019-08-10 15:00:00 36.9 14 Sudoeste -- -- 0 944.4 -1.7 18
2019-08-10 14:00:00 34 9 Este 18 Nordeste 0 945.1 -0.9 24
2019-08-10 13:00:00 32.7 8 Norte 22 Norte 0 945.5 -0.5 27
2019-08-10 12:00:00 30.3 10 Norte 30 Noroeste 0 946.1 0.6 35
2019-08-10 11:00:00 27.9 18 Norte 40 Noroeste 0 946 0.8 45
2019-08-10 10:00:00 26.3 22 Noroeste 41 Noroeste 0 946 1.5 50
2019-08-10 09:00:00 25.2 24 Noroeste 41 Norte 0 945.5 1.4 53
2019-08-10 08:00:00 23.2 6 Sur 21 Noroeste 0 945.2 1.2 57
2019-08-10 07:00:00 25.3 7 Noroeste 24 Noroeste 0 944.5 0.8 50
2019-08-10 06:00:00 26 8 Noroeste 21 Noroeste 0 944.1 0.3 46
2019-08-10 05:00:00 26.9 5 Oeste 32 Noroeste 0 944 -0.1 38
2019-08-10 04:00:00 28 23 Noroeste 39 Noroeste 0 943.7 -0.5 35
2019-08-10 03:00:00 28.6 12 Noroeste 26 Noroeste 0 943.8 -0.1 32
2019-08-10 02:00:00 29.6 14 Noroeste 31 Noroeste 0 944.1 0.7 26
2019-08-10 01:00:00 27.2 4 Sudeste 10 Sur 0 944.2 1.7 25
2019-08-10 00:00:00 30.9 7 Oeste 22 Noroeste 0 943.9 2.1 23
2019-08-09 23:00:00 29.2 12 Sudoeste 22 Oeste 0 943.4 2.1 19
2019-08-09 22:00:00 33.7 12 Noroeste 20 Oeste 0 942.5 1.3 14
2019-08-09 21:00:00 35.6 9 Noroeste 33 Sudoeste 0 941.8 0.2 9
2019-08-09 20:00:00 38.2 15 Oeste 31 Oeste 0 941.3 -0.8 6
2019-08-09 19:00:00 38.7 15 Sudoeste 27 Oeste 0 941.2 -1.5 9
2019-08-09 18:00:00 38.9 15 Noroeste 33 Oeste 0 941.6 -1.5 8
2019-08-09 17:00:00 38.6 13 Noroeste 27 Oeste 0 942.1 -1.4 9
2019-08-09 16:00:00 37.8 6 Sudoeste 27 Oeste 0 942.7 -1 11
2019-08-09 15:00:00 36.9 10 Sudoeste 31 Oeste 0 943.1 -0.5 12
2019-08-09 14:00:00 35.3 13 Oeste 35 Oeste 0 943.5 0.1 14
2019-08-09 13:00:00 34.3 15 Oeste 35 Oeste 0 943.7 0.2 18
2019-08-09 12:00:00 33 15 Oeste 32 Oeste 0 943.6 0.5 20
2019-08-09 11:00:00 31.6 10 Oeste 19 Oeste 0 943.4 0.4 22
2019-08-09 10:00:00 27.8 4 Este 10 Nordeste 0 943.5 0.6 28
2019-08-09 09:00:00 23 2 Este 10 Sudoeste 0 943.1 0.5 41
2019-08-09 08:00:00 17.3 5 Oeste 9 Oeste 0 943 0.4 61
2019-08-09 07:00:00 16.5 3 Oeste 9 Sudoeste 0 942.9 0.1 60
2019-08-09 06:00:00 16.5 4 Sudoeste 7 Sudoeste 0 942.6 0 60
2019-08-09 05:00:00 17.9 0 Calma 6 Sudoeste 0 942.6 -0.2 57
2019-08-09 04:00:00 19.6 3 Oeste 10 Sudoeste 0 942.8 0.3 52
2019-08-09 03:00:00 21.1 4 Oeste 15 Sudoeste 0 942.6 0.2 48
2019-08-09 02:00:00 21.4 5 Sudoeste 12 Sudoeste 0 942.8 0.8 48
2019-08-09 01:00:00 23.1 7 Oeste 11 Oeste 0 942.5 1.1 43
2019-08-09 00:00:00 25.4 2 Nordeste 15 Oeste 0 942.4 1.3 37
2019-08-08 23:00:00 27.1 12 Sudoeste 16 Sudoeste 0 942 1.4 33
2019-08-08 22:00:00 28.4 10 Sudoeste 24 Sudoeste 0 941.4 0.9 32
2019-08-08 21:00:00 30.8 11 Sudoeste 27 Sur 0 941.1 0.5 28
2019-08-08 20:00:00 34.4 13 Sudoeste 31 Sudoeste 0 940.6 -0.4 21
2019-08-08 19:00:00 35.5 17 Sur 29 Sudoeste 0 940.5 -1.2 20
2019-08-08 18:00:00 37.3 12 Sudoeste 27 Sudoeste 0 940.6 -1.5 11
2019-08-08 17:00:00 37.2 13 Sudoeste -- -- 0 941 -1.5 12
2019-08-08 16:00:00 36.6 12 Sur 32 Sudoeste 0 941.7 -1.4 13
2019-08-08 15:00:00 36.1 8 Sudoeste -- -- 0 942.1 -0.9 12
2019-08-08 14:00:00 34.7 6 Sudoeste 24 Oeste 0 942.5 -0.4 15
2019-08-08 13:00:00 33.1 8 Sur 22 Sur 0 943.1 0.3 20
2019-08-08 12:00:00 31.5 10 Norte 22 Norte 0 943 0.4 23
2019-08-08 11:00:00 29.4 12 Norte 19 Nordeste 0 942.9 0.4 27
2019-08-08 10:00:00 27.4 6 Sudeste 15 Oeste 0 942.8 0.7 31
2019-08-08 09:00:00 24.9 4 Nordeste 10 Nordeste 0 942.6 1 34
2019-08-08 08:00:00 23.5 5 Nordeste 12 Nordeste 0 942.5 0.9 37
2019-08-08 07:00:00 24.4 6 Nordeste 28 Norte 0 942.1 0.5 34
2019-08-08 06:00:00 24.9 17 Norte 32 Norte 0 941.6 -0.2 33
2019-08-08 05:00:00 25.4 18 Norte 45 Noroeste 0 941.6 -0.4 32
2019-08-08 04:00:00 26.3 28 Noroeste 38 Noroeste 0 941.6 -0.3 30
2019-08-08 03:00:00 27.2 24 Noroeste 41 Norte 0 941.8 0 28
2019-08-08 02:00:00 24.9 7 Oeste 17 Oeste 0 942 0 27
2019-08-08 01:00:00 25.5 8 Oeste 11 Sudoeste 0 941.9 0.9 23
2019-08-08 00:00:00 26.5 6 Nordeste 10 Sur 0 941.8 1.3 21
2019-08-07 23:00:00 28.1 4 Sur 20 Nordeste 0 942 2.3 18
2019-08-07 22:00:00 30.6 14 Norte 31 Norte 0 941 1.4 14
2019-08-07 21:00:00 31.5 8 Noroeste 25 Oeste 0 940.5 0.7 15
2019-08-07 20:00:00 34.9 15 Oeste -- -- 0 939.7 -0.3 13
2019-08-07 19:00:00 36.7 12 Oeste 32 Oeste 0 939.6 -1 10
2019-08-07 18:00:00 35.8 13 Oeste 25 Oeste 0 939.8 -1.1 10
2019-08-07 17:00:00 35.5 9 Norte 31 Norte 0 940 -1.1 12
2019-08-07 16:00:00 35.8 8 Noroeste 26 Oeste 0 940.6 -0.7 10
2019-08-07 15:00:00 35.4 15 Oeste 28 Oeste 0 940.9 -0.6 13
2019-08-07 14:00:00 33.9 10 Nordeste 32 Oeste 0 941.1 0.2 16
2019-08-07 13:00:00 32.9 12 Noroeste 31 Oeste 0 941.3 0.7 16
2019-08-07 12:00:00 32.2 15 Oeste 37 Oeste 0 941.5 1.4 18
2019-08-07 11:00:00 31.2 11 Sudoeste 29 Sudoeste 0 940.9 0.9 20
2019-08-07 10:00:00 27.3 5 Este 9 Nordeste 0 940.6 1.1 24
2019-08-07 09:00:00 22.5 3 Nordeste 8 Sudoeste 0 940.1 1 37
2019-08-07 08:00:00 18.1 5 Oeste 8 Oeste 0 940 1.1 45
2019-08-07 07:00:00 18 5 Sudoeste 12 Sudoeste 0 939.5 0.4 49
2019-08-07 06:00:00 19.5 5 Sudeste 13 Este 0 939.1 -0.5 58
2019-08-07 05:00:00 20.2 2 Norte 10 Sudeste 0 938.9 -0.9 55
2019-08-07 04:00:00 21 3 Sudoeste 9 Sudoeste 0 939.1 -0.8 55
2019-08-07 03:00:00 22.6 2 Oeste 13 Oeste 0 939.6 -0.6 48
2019-08-07 02:00:00 23.9 8 Oeste 14 Oeste 0 939.8 -0.2 44
2019-08-07 01:00:00 25 10 Oeste 13 Oeste 0 939.9 0.8 40
2019-08-07 00:00:00 25.9 9 Sudoeste 12 Sudoeste 0 940.2 1.7 34
2019-08-06 23:00:00 28.4 4 Sudoeste 17 Sudoeste 0 940 1.6 29
2019-08-06 22:00:00 29.9 12 Sudoeste 24 Sudoeste 0 939.1 0.7 31
2019-08-06 21:00:00 32.4 15 Sudoeste 22 Sudoeste 0 938.5 -0.2 31
2019-08-06 20:00:00 34.7 12 Sudoeste 27 Sur 0 938.4 -1 27
2019-08-06 19:00:00 36.5 13 Sur -- -- 0 938.4 -1.7 23
2019-08-06 18:00:00 38.3 19 Sudoeste 30 Sur 0 938.7 -2.2 14
2019-08-06 17:00:00 38.5 15 Sudoeste 37 Sudoeste 0 939.4 -2.2 12
2019-08-06 16:00:00 37.7 18 Sudoeste 33 Sudoeste 0 940.1 -1.8 13
2019-08-06 15:00:00 37.3 10 Sudoeste 33 Sudoeste 0 940.9 -1.2 12
2019-08-06 14:00:00 36.5 15 Oeste 26 Oeste 0 941.6 -0.5 12
2019-08-06 13:00:00 35.7 12 Oeste 26 Oeste 0 941.9 -0.1 13
2019-08-06 12:00:00 33.2 4 Sur 14 Sur 0 942.1 0.1 22
2019-08-06 11:00:00 30.7 6 Este 13 Sudeste 0 942.1 0.4 37
2019-08-06 10:00:00 26.1 3 Nordeste 8 Sudeste 0 942 0.5 54
2019-08-06 09:00:00 22.2 0 Calma 8 Oeste 0 942 0.4 73
2019-08-06 08:00:00 18.1 4 Sudoeste 7 Oeste 0 941.7 -0.2 83
2019-08-06 07:00:00 18.6 4 Oeste 6 Sudoeste 0 941.5 -0.4 82
2019-08-06 06:00:00 19.5 3 Sudoeste 13 Oeste 0 941.6 -0.1 77
2019-08-06 05:00:00 20.3 9 Oeste 11 Oeste 0 941.9 -0.4 75
2019-08-06 04:00:00 20.6 6 Sudoeste 8 Sudoeste 0 941.9 -0.4 70
2019-08-06 03:00:00 22.1 4 Oeste 8 Oeste 0 941.7 -0.6 67
2019-08-06 02:00:00 23.4 2 Noroeste 7 Sudoeste 0 942.3 0.4 62
2019-08-06 01:00:00 24.2 5 Sudoeste 15 Oeste 0 942.3 1.3 60
2019-08-06 00:00:00 25.4 6 Sudoeste 12 Sudoeste 0 942.3 1.8 57
2019-08-05 23:00:00 26.2 4 Sur 9 Sudeste 0 941.9 1.9 52
2019-08-05 22:00:00 27.7 6 Sudeste 10 Sudeste 0 941 0.9 49
2019-08-05 21:00:00 29.7 7 Sur 21 Sur 0 940.5 0.4 44
2019-08-05 20:00:00 31 14 Sudoeste 31 Sudoeste 0 940 -0.3 42
2019-08-05 19:00:00 34 13 Sur 28 Sudeste 0 940.1 -1 34
2019-08-05 18:00:00 35.1 17 Sur 31 Sur 0 940.1 -1.7 33
2019-08-05 17:00:00 37 12 Sur 27 Sudeste 0 940.3 -2.2 26
2019-08-05 16:00:00 37.2 11 Sudoeste 22 Sur 0 941.1 -1.9 20
2019-08-05 15:00:00 36.1 11 Sur 23 Sudoeste 0 941.8 -1.4 21
2019-08-05 14:00:00 35.2 9 Sur 25 Sudoeste 0 942.5 -0.7 21
2019-08-05 13:00:00 33.2 8 Sur 17 Sur 0 943 -0.4 29
2019-08-05 12:00:00 31.3 6 Este 14 Este 0 943.2 -0.1 37
2019-08-05 11:00:00 28.9 6 Nordeste 12 Nordeste 0 943.2 0.4 44
2019-08-05 10:00:00 25.6 6 Nordeste 10 Este 0 943.4 1.2 55
2019-08-05 09:00:00 23.7 3 Sudeste 14 Sudoeste 0 943.3 0.9 63
2019-08-05 08:00:00 19.1 7 Oeste 13 Oeste 0 942.8 0 79
2019-08-05 07:00:00 18.3 6 Oeste 8 Oeste 0 942.2 -0.9 77
2019-08-05 06:00:00 19.3 3 Sudoeste 8 Oeste 0 942.4 -1.1 72
2019-08-05 05:00:00 20 2 Sudoeste 8 Oeste 0 942.8 -1 70
2019-08-05 04:00:00 20.7 3 Oeste 10 Oeste 0 943.1 -0.5 68
2019-08-05 03:00:00 21.3 7 Oeste 10 Sudoeste 0 943.5 0.2 65
2019-08-05 02:00:00 21.8 6 Oeste 10 Sudoeste 0 943.8 1.1 61
2019-08-05 01:00:00 22.9 8 Oeste 10 Sudoeste 0 943.6 1.6 56
2019-08-05 00:00:00 24.6 2 Este 12 Sudoeste 0 943.3 2.1 51
2019-08-04 23:00:00 26.3 9 Oeste 12 Sudoeste 0 942.7 2 47
2019-08-04 22:00:00 28 4 Sudoeste 20 Sudoeste 0 942 1.3 43
2019-08-04 21:00:00 29.9 14 Sudoeste 22 Sudoeste 0 941.2 0.6 35
2019-08-04 20:00:00 32.7 15 Sur 27 Sudeste 0 940.7 -0.5 29
2019-08-04 19:00:00 34.6 14 Sur 24 Sur 0 940.7 -1.1 27
2019-08-04 18:00:00 35.6 13 Sudeste 27 Este 0 940.6 -1.6 22
2019-08-04 17:00:00 35.5 8 Sur 22 Sudeste 0 941.2 -1.4 21
2019-08-04 16:00:00 35.8 9 Sudoeste 23 Sur 0 941.8 -1.2 21
2019-08-04 15:00:00 35 12 Sur 21 Sudoeste 0 942.2 -1 23
2019-08-04 14:00:00 33.8 8 Sur 22 Sudeste 0 942.6 -0.6 24
2019-08-04 13:00:00 32.8 12 Sur 21 Sur 0 943 0.1 26
2019-08-04 12:00:00 31.8 6 Sudeste 16 Sur 0 943.2 0.6 26
2019-08-04 11:00:00 29.7 6 Sudeste 13 Sur 0 943.2 0.7 31
2019-08-04 10:00:00 25.7 5 Sudeste 12 Sudeste 0 942.9 0.6 45
2019-08-04 09:00:00 22 3 Nordeste 10 Oeste 0 942.6 0.4 59
2019-08-04 08:00:00 17.5 3 Oeste 9 Sudoeste 0 942.5 0.2 74
2019-08-04 07:00:00 17.8 3 Sudoeste 6 Nordeste 0 942.3 -0.1 70
2019-08-04 06:00:00 18.4 5 Oeste 10 Oeste 0 942.2 -0.4 68
2019-08-04 05:00:00 18.9 3 Sudoeste 5 Oeste 0 942.3 -0.6 66
2019-08-04 04:00:00 20.6 2 Este 13 Oeste 0 942.4 -0.6 62
2019-08-04 03:00:00 20.7 4 Oeste 11 Sudoeste 0 942.6 -0.3 63
2019-08-04 02:00:00 21.2 4 Oeste 9 Sudoeste 0 942.9 0.4 61
2019-08-04 01:00:00 22.4 8 Sudoeste 13 Sudoeste 0 943 1.4 60
2019-08-04 00:00:00 22.6 7 Oeste 10 Oeste 0 942.9 2 61
2019-08-03 23:00:00 24.5 4 Sur 15 Oeste 0 942.5 2 54
2019-08-03 22:00:00 26.1 10 Sudoeste 18 Sudoeste 0 941.6 0.7 49
2019-08-03 21:00:00 28.4 10 Sudoeste 18 Sudoeste 0 940.9 -0.4 42
2019-08-03 20:00:00 31.1 8 Sur 17 Sudeste 0 940.5 -1.4 32
2019-08-03 19:00:00 31.9 9 Sur 19 Sudeste 0 940.9 -1.4 28
2019-08-03 18:00:00 33.9 8 Sudeste 24 Sudeste 0 941.3 -1.7 24
2019-08-03 17:00:00 34 9 Sur 24 Sudeste 0 941.9 -1.4 24
2019-08-03 16:00:00 33.6 11 Sur 29 Sudeste 0 942.3 -1.4 27
2019-08-03 15:00:00 32.8 12 Sur 22 Sudoeste 0 943 -1 27
2019-08-03 14:00:00 31.9 9 Sudeste 15 Este 0 943.3 -0.9 31
2019-08-03 13:00:00 30.1 12 Sudeste 21 Sudeste 0 943.7 -0.4 36
2019-08-03 12:00:00 28.3 11 Sur 19 Sudoeste 0 944 0.3 41
2019-08-03 11:00:00 26.8 7 Sudeste 21 Sudeste 0 944.2 0.8 51
2019-08-03 10:00:00 24.6 3 Noroeste 8 Sudeste 0 944.1 0.9 65
2019-08-03 09:00:00 22 4 Este 7 Oeste 0 943.7 0.6 78
2019-08-03 08:00:00 19.4 3 Oeste 8 Oeste 0 943.4 0.2 85
2019-08-03 07:00:00 19.7 2 Noroeste 6 Nordeste 0 943.2 -0.2 84
2019-08-03 06:00:00 20.6 4 Este 10 Nordeste 0 943.1 -0.7 83
2019-08-03 05:00:00 21.3 7 Nordeste 12 Nordeste 0 943.2 -0.8 82
2019-08-03 04:00:00 21.7 9 Nordeste 12 Nordeste 0 943.4 -0.7 82
2019-08-03 03:00:00 22 7 Este 10 Nordeste 0 943.8 0 82
2019-08-03 02:00:00 22.1 3 Este 14 Nordeste 0 944 0.9 81
2019-08-03 01:00:00 21.9 9 Nordeste 18 Nordeste 0 944.1 1.8 73
2019-08-03 00:00:00 23.3 10 Nordeste 15 Nordeste 0 943.8 2.1 64
2019-08-02 23:00:00 25.2 10 Nordeste 15 Nordeste 0 943.1 1.5 55
2019-08-02 22:00:00 27.1 9 Nordeste 20 Nordeste 0 942.3 0.7 48
2019-08-02 21:00:00 29.5 12 Este 23 Este 0 941.7 0.1 45
2019-08-02 20:00:00 31.5 12 Este 22 Sudoeste 0 941.6 -0.6 40
2019-08-02 19:00:00 32 13 Sur 27 Sudeste 0 941.6 -0.8 38
2019-08-02 18:00:00 33.3 11 Este 22 Sudeste 0 941.6 -1.2 32
2019-08-02 17:00:00 33.4 13 Sudeste 29 Sudeste 0 942.2 -1.1 34
2019-08-02 16:00:00 33.8 11 Sudeste 27 Sudeste 0 942.4 -1.1 35
2019-08-02 15:00:00 33.7 8 Este 20 Este 0 942.8 -0.6 25
2019-08-02 14:00:00 32.3 8 Sudeste 22 Sudeste 0 943.3 0.2 28
2019-08-02 13:00:00 30.3 8 Nordeste 17 Nordeste 0 943.5 0.3 34
2019-08-02 12:00:00 28.3 9 Este 17 Este 0 943.4 0.7 41
2019-08-02 11:00:00 25.6 12 Este 19 Este 0 943.1 0.9 44
2019-08-02 10:00:00 23.6 10 Nordeste 19 Nordeste 0 943.2 1 53
2019-08-02 09:00:00 21 9 Este 16 Este 0 942.7 0.7 80
2019-08-02 08:00:00 17.6 2 Sudeste 6 Nordeste 0 942.2 0.5 88
2019-08-02 07:00:00 18.2 5 Oeste 7 Noroeste 0 942.2 0.3 87
2019-08-02 06:00:00 18.8 2 Nordeste 7 Sudoeste 0 942 -0.3 86
2019-08-02 05:00:00 19.5 5 Oeste 11 Sudoeste 0 941.7 -0.6 85
2019-08-02 04:00:00 19.6 6 Oeste 8 Oeste 0 941.9 -0.5 83
2019-08-02 03:00:00 20.9 4 Noroeste 8 Norte 0 942.3 0.1 80
2019-08-02 02:00:00 21.7 3 Nordeste 8 Norte 0 942.3 0.6 78
2019-08-02 01:00:00 22.5 5 Nordeste 10 Nordeste 0 942.4 1.8 75
2019-08-02 00:00:00 23.4 8 Nordeste 16 Norte 0 942.2 2.5 71
2019-08-01 23:00:00 24.7 10 Nordeste 15 Nordeste 0 941.7 2.8 65
2019-08-01 22:00:00 26.7 9 Nordeste 21 Nordeste 0 940.6 1.8 55
2019-08-01 21:00:00 28.7 14 Nordeste 30 Nordeste 0 939.7 0.5 48
2019-08-01 20:00:00 32.2 17 Este 27 Este 0 938.9 -0.8 37
2019-08-01 19:00:00 34.8 8 Sudeste 22 Este 0 938.8 -1.4 22
2019-08-01 18:00:00 34.7 12 Este 20 Este 0 939.2 -2 23
2019-08-01 17:00:00 34 9 Nordeste 15 Nordeste 0 939.7 -1.5 23
2019-08-01 16:00:00 33.4 9 Nordeste 21 Nordeste 0 940.2 -1.7 25
2019-08-01 15:00:00 31.9 5 Este 17 Sudeste 0 941.2 -0.7 29
2019-08-01 14:00:00 30.6 5 Este 17 Sudoeste 0 941.2 -0.6 32
2019-08-01 13:00:00 28.9 4 Este 14 Nordeste 0 941.9 -0.2 34
2019-08-01 12:00:00 26.5 8 Nordeste 19 Nordeste 0 941.9 -0.2 42
2019-08-01 11:00:00 24.1 8 Nordeste 18 Este 0 941.8 -0.1 55
2019-08-01 10:00:00 21 9 Norte 18 Norte 0 942.1 0.2 70
2019-08-01 09:00:00 20.4 7 Nordeste 14 Nordeste 0 942.1 -0.1 75
2019-08-01 08:00:00 17.9 6 Este 13 Norte 0 941.9 0 84
2019-08-01 07:00:00 18.5 7 Nordeste 16 Nordeste 0 941.9 -0.5 82
2019-08-01 06:00:00 18.4 8 Nordeste 14 Nordeste 0 942.2 -0.4 84
2019-08-01 05:00:00 18.6 8 Nordeste 26 Nordeste 0 941.9 -1 83
2019-08-01 04:00:00 19.1 12 Nordeste 24 Nordeste 0 942.4 -0.4 80
2019-08-01 03:00:00 19.2 13 Nordeste 22 Nordeste 0 942.6 -0.8 82
2019-08-01 02:00:00 19.5 12 Nordeste 24 Nordeste 0 942.9 -0.9 78
2019-08-01 01:00:00 19.9 12 Nordeste 23 Nordeste 0 942.8 -0.1 77
2019-08-01 00:00:00 20.2 10 Nordeste 18 Nordeste 0 943.4 1 77
2019-07-31 23:00:00 20.8 10 Nordeste 25 Nordeste 0 943.8 1.9 74
2019-07-31 22:00:00 21.5 13 Nordeste 30 Nordeste 0 942.9 1.2 70
2019-07-31 21:00:00 22.8 19 Nordeste 35 Nordeste 0 942.4 -0.3 63
2019-07-31 20:00:00 24.4 23 Nordeste 38 Nordeste 0 941.9 -1.1 59
2019-07-31 19:00:00 25.7 23 Nordeste 40 Nordeste 0 941.7 -1.8 54
2019-07-31 18:00:00 26.7 16 Nordeste 27 Nordeste 0 942.7 -0.6 51
2019-07-31 17:00:00 25.9 18 Este 33 Nordeste 0 943 -1 53
2019-07-31 16:00:00 26.2 7 Este 29 Nordeste 0 943.5 -0.9 54
2019-07-31 15:00:00 25.9 19 Nordeste 32 Este 0 943.3 -1.4 53
2019-07-31 14:00:00 27.7 10 Este 27 Nordeste 0 944 -0.8 41
2019-07-31 13:00:00 27.4 14 Este 27 Este 0 944.4 0.1 44
2019-07-31 12:00:00 25.9 9 Sudeste 24 Este 0 944.7 0.4 49
2019-07-31 11:00:00 23.7 14 Este 28 Nordeste 0 944.8 1.6 59
2019-07-31 10:00:00 22.9 18 Nordeste 28 Nordeste 0 944.3 0.5 64
2019-07-31 09:00:00 21.3 13 Este 26 Nordeste 0 944.3 -0.2 72
2019-07-31 08:00:00 19.4 17 Nordeste 32 Nordeste 0 943.2 -0.7 85
2019-07-31 07:00:00 19.4 13 Nordeste 28 Nordeste 0 943.8 -0.4 82
2019-07-31 06:00:00 19.7 9 Nordeste 18 Nordeste 0 944.5 0.6 83
2019-07-31 05:00:00 19.9 10 Nordeste 19 Nordeste 0 943.9 0.4 81
2019-07-31 04:00:00 21 10 Nordeste 23 Nordeste 0 944.2 0.6 80
2019-07-31 03:00:00 21.2 15 Nordeste 27 Nordeste 0 943.9 0.5 80
2019-07-31 02:00:00 21.2 13 Nordeste 30 Nordeste 0 943.5 0.5 80
2019-07-31 01:00:00 21.6 21 Nordeste 30 Nordeste 0 943.6 1.4 78
2019-07-31 00:00:00 22.9 17 Nordeste 24 Nordeste 0 943.4 1.8 75
2019-07-30 23:00:00 23.8 13 Nordeste 21 Nordeste 0 943 1.9 71
2019-07-30 22:00:00 24.5 11 Este 21 Este 0 942.2 1.3 70
2019-07-30 21:00:00 26.4 12 Este 24 Sudeste 0 941.6 0.7 62
2019-07-30 20:00:00 28.5 14 Sudeste 29 Sudeste 0 941.1 -0.1 53
2019-07-30 19:00:00 29.9 18 Sudeste 34 Sudeste 0 940.9 -0.4 45
2019-07-30 18:00:00 31.4 15 Este 32 Sudeste 0 940.9 -0.8 37
2019-07-30 17:00:00 30.1 17 Este 41 Nordeste 0 941.2 -0.9 38
2019-07-30 16:00:00 31.8 18 Este -- -- 0 941.3 -1.1 32
2019-07-30 15:00:00 32.4 14 Este 26 Nordeste 0 941.7 -0.9 26
2019-07-30 14:00:00 31.6 11 Este 23 Nordeste 0 942.1 -0.5 21
2019-07-30 13:00:00 30 10 Este 23 Nordeste 0 942.4 0.2 31
2019-07-30 12:00:00 28.7 14 Este 24 Nordeste 0 942.6 0.8 33
2019-07-30 11:00:00 27.8 13 Este 22 Nordeste 0 942.6 1.2 35
2019-07-30 10:00:00 27.3 7 Sur 12 Sudeste 0 942.2 1.4 22
2019-07-30 09:00:00 22.7 3 Sur 5 Sur 0 941.8 1.4 31
2019-07-30 08:00:00 19.6 0 Calma 11 Sudeste 0 941.4 0.9 36
2019-07-30 07:00:00 20.5 5 Sudeste 15 Sudeste 0 940.8 0.5 32
2019-07-30 06:00:00 19.9 5 Este 12 Sudeste 0 940.4 -0.2 42
2019-07-30 05:00:00 19.7 2 Noroeste 8 Noroeste 0 940.5 -0.2 59
2019-07-30 04:00:00 19.9 2 Norte 7 Sur 0 940.3 -0.6 59
2019-07-30 03:00:00 19.8 4 Oeste 8 Sudoeste 0 940.6 -0.1 57
2019-07-30 02:00:00 22.5 4 Este 7 Sur 0 940.7 0.5 50
2019-07-30 01:00:00 22.8 3 Sudoeste 15 Oeste 0 940.9 1.6 49
2019-07-30 00:00:00 23.5 10 Oeste 12 Oeste 0 940.7 2.2 46
2019-07-29 23:00:00 24.9 6 Sudoeste 14 Sudoeste 0 940.2 2 42
2019-07-29 22:00:00 26.4 10 Sudoeste 18 Sudoeste 0 939.3 1.3 38
2019-07-29 21:00:00 28 10 Sur 25 Sudeste 0 938.5 0.5 35
2019-07-29 20:00:00 30.1 14 Sur 31 Sudeste 0 938.2 -0.1 31
2019-07-29 19:00:00 31.8 15 Sur 28 Sudeste 0 938 -0.8 30
2019-07-29 18:00:00 33.7 17 Sudeste 26 Sudeste 0 938 -1.1 27
2019-07-29 17:00:00 34.4 6 Oeste 29 Oeste 0 938.3 -1.3 19
2019-07-29 16:00:00 34 8 Sudoeste -- -- 0 938.8 -1.3 20
2019-07-29 15:00:00 33.1 11 Sur 23 Sudoeste 0 939.1 -1 23
2019-07-29 14:00:00 32.5 6 Sur 23 Sur 0 939.6 -0.6 23
2019-07-29 13:00:00 31 11 Sur 26 Sur 0 940.1 -0.3 25
2019-07-29 12:00:00 30.1 7 Oeste 15 Oeste 0 940.1 0 27
2019-07-29 11:00:00 27.7 4 Sudeste 10 Sudoeste 0 940.2 0.5 38
2019-07-29 10:00:00 24.5 3 Este 8 Este 0 940.4 1 47
2019-07-29 09:00:00 20.8 6 Nordeste 13 Oeste 0 940.1 1 60
2019-07-29 08:00:00 16.7 9 Sudoeste 13 Oeste 0 939.7 0.5 71
2019-07-29 07:00:00 15.4 4 Sudoeste 9 Oeste 0 939.4 0.1 72
2019-07-29 06:00:00 15.7 5 Oeste 7 Sudoeste 0 939.1 -0.4 73
2019-07-29 05:00:00 17.1 2 Sudoeste 10 Oeste 0 939.2 -0.4 71
2019-07-29 04:00:00 17.4 4 Oeste 7 Oeste 0 939.3 -0.5 70
2019-07-29 03:00:00 18.8 2 Oeste 13 Sudoeste 0 939.5 -0.3 68
2019-07-29 02:00:00 19.6 5 Sudoeste 13 Oeste 0 939.6 0 70
2019-07-29 01:00:00 20.1 8 Sudoeste 12 Oeste 0 939.8 0.9 69
2019-07-29 00:00:00 21 5 Sudoeste 8 Sudoeste 0 939.8 1.6 66
2019-07-28 23:00:00 22.5 6 Sudoeste 15 Sur 0 939.6 2 62
2019-07-28 22:00:00 23.4 10 Sudoeste 22 Sur 0 938.9 1.5 56
2019-07-28 21:00:00 24.9 12 Sur 27 Sudeste 0 938.2 1.1 52
2019-07-28 20:00:00 26.6 17 Sur 33 Sudeste 0 937.6 0.1 49
2019-07-28 19:00:00 27.9 19 Sudeste 34 Sur 0 937.4 -0.7 46
2019-07-28 18:00:00 29.8 19 Sur 40 Sudeste 0 937.1 -1.4 34
2019-07-28 17:00:00 31.5 10 Sudoeste 21 Sudoeste 0 937.5 -1.3 19
2019-07-28 16:00:00 31.3 7 Sur 26 Sudoeste 0 938.1 -1 19
2019-07-28 15:00:00 30.3 8 Sudoeste 27 Sudoeste 0 938.5 -0.9 21
2019-07-28 14:00:00 29.6 11 Sudoeste -- -- 0 938.8 -0.6 22
2019-07-28 13:00:00 28.4 12 Oeste 29 Nordeste 0 939.1 -0.3 24
2019-07-28 12:00:00 26.2 10 Norte 27 Norte 0 939.4 0.3 29
2019-07-28 11:00:00 24.9 8 Norte 30 Norte 0 939.4 0.7 32
2019-07-28 10:00:00 23 9 Noroeste 16 Sudoeste 0 939.4 1.3 41
2019-07-28 09:00:00 22 7 Oeste 21 Noroeste 0 939.1 1.1 43
2019-07-28 08:00:00 18.5 4 Este 27 Oeste 0 938.7 1.4 59
2019-07-28 07:00:00 20 15 Noroeste 37 Noroeste 0 938.1 0.5 50
2019-07-28 06:00:00 20.5 18 Oeste 31 Oeste 0 938 0.3 51
2019-07-28 05:00:00 21.3 16 Noroeste 48 Oeste 0 937.3 -0.5 49
2019-07-28 04:00:00 21.4 24 Oeste 37 Oeste 0 937.6 -0.2 49
2019-07-28 03:00:00 21.5 19 Oeste 32 Oeste 0 937.7 0 48
2019-07-28 02:00:00 21.8 15 Oeste 31 Oeste 0 937.8 0.8 46
2019-07-28 01:00:00 22.7 17 Oeste 33 Oeste 0 937.8 1.9 41
2019-07-28 00:00:00 23.3 23 Oeste 41 Oeste 0 937.7 2.7 42
2019-07-27 23:00:00 24.2 18 Oeste 46 Oeste 0 937 2.5 41
2019-07-26 12:00:00 31.1 9 Oeste 28 Oeste 0 940 -0.6 24
2019-07-26 11:00:00 29.4 4 Norte 11 Este 0 940.3 -0.1 26
2019-07-26 10:00:00 25.9 3 Este 6 Nordeste 0 940.6 0.3 30
2019-07-26 09:00:00 22.6 2 Este 4 Nordeste 0 940.6 0.5 37
2019-07-26 08:00:00 17.6 0 Calma 8 Oeste 0 940.4 -0.1 51
2019-07-26 07:00:00 16.9 3 Oeste 7 Oeste 0 940.3 -0.7 52
2019-07-26 06:00:00 18 5 Oeste 10 Oeste 0 940.1 -1.4 48
2019-07-26 05:00:00 18.8 6 Sudoeste 10 Sudoeste 0 940.5 -1.6 45
2019-07-26 04:00:00 19.8 9 Sudoeste 17 Oeste 0 941 -1.4 43
2019-07-26 03:00:00 21.3 14 Oeste 19 Oeste 0 941.5 -1 38
2019-07-26 02:00:00 22.3 6 Oeste 15 Sudoeste 0 942.1 -0.2 34
2019-07-26 01:00:00 24.5 10 Sudoeste 24 Sudoeste 0 942.4 0.7 30
2019-07-26 00:00:00 24.7 9 Sudoeste 23 Sudoeste 0 942.5 1.2 32
2019-07-25 23:00:00 26.2 11 Sudoeste 19 Sudoeste 0 942.3 1.2 29
2019-07-25 22:00:00 27.5 6 Sudoeste 21 Sudoeste 0 941.7 0.7 25
2019-07-25 21:00:00 29.4 8 Sur 25 Sudeste 0 941.3 -0.3 23
2019-07-25 20:00:00 31.7 15 Sudeste 28 Sur 0 941.1 -1 21
2019-07-25 19:00:00 33.3 12 Sudeste 27 Sur 0 941 -1.5 18
2019-07-25 18:00:00 34.1 14 Sudeste 32 Sudeste 0 941.6 -1.3 19
2019-07-25 17:00:00 34.4 12 Sudeste 29 Sur 0 942.1 -1.2 17
2019-07-25 16:00:00 34.6 14 Sudeste 28 Sudeste 0 942.5 -1 17
2019-07-25 15:00:00 34.5 13 Sudeste 29 Sudeste 0 942.9 -1 16
2019-07-25 14:00:00 34.1 13 Sudeste 27 Sudeste 0 943.3 -0.6 16
2019-07-25 13:00:00 33 13 Sudeste 28 Sudeste 0 943.5 -0.5 20
2019-07-25 12:00:00 31.7 9 Sur 18 Sudeste 0 943.9 0 21
2019-07-25 11:00:00 29.4 4 Este 10 Este 0 943.9 0.1 24
2019-07-25 10:00:00 25.9 3 Nordeste 9 Nordeste 0 944 0.5 30
2019-07-25 09:00:00 21.2 7 Nordeste 12 Oeste 0 943.9 0.6 40
2019-07-25 08:00:00 16.8 4 Sudoeste 7 Oeste 0 943.8 0.3 55
2019-07-25 07:00:00 15.9 7 Oeste 10 Oeste 0 943.5 -0.3 55
2019-07-25 06:00:00 16.8 6 Oeste 8 Oeste 0 943.3 -0.6 52
2019-07-25 05:00:00 17.8 4 Sudoeste 6 Sudoeste 0 943.5 -0.7 48
2019-07-25 04:00:00 18.9 4 Noroeste 12 Sudoeste 0 943.8 -0.5 43
2019-07-25 03:00:00 19.7 8 Oeste 15 Oeste 0 943.9 -0.3 38
2019-07-25 02:00:00 21.6 12 Oeste 16 Oeste 0 944.2 0.2 34
2019-07-25 01:00:00 20.7 3 Sudoeste 9 Oeste 0 944.3 0.8 34
2019-07-25 00:00:00 23.8 2 Sudeste 10 Sudoeste 0 944.2 0.8 29
2019-07-24 23:00:00 26.6 9 Sudoeste 19 Sudoeste 0 944 0.9 23
2019-07-24 22:00:00 27.7 7 Sudoeste 17 Sur 0 943.5 0.3 22
2019-07-24 21:00:00 30 10 Sur 21 Sudeste 0 943.4 0 18
2019-07-24 20:00:00 32 15 Sur 24 Sur 0 943.1 -0.4 17
2019-07-24 19:00:00 33.4 16 Sudeste 27 Sudeste 0 943.2 -0.7 15
2019-07-24 18:00:00 34.3 15 Sur 28 Sur 0 943.4 -0.8 14
2019-07-24 17:00:00 35 14 Sur 27 Sudeste 0 943.5 -1.1 14
2019-07-24 16:00:00 35.3 16 Sur 34 Sur 0 943.9 -1 14
2019-07-24 15:00:00 35.1 16 Sur 30 Sur 0 944.2 -0.9 14
2019-07-24 14:00:00 35.2 12 Sudeste 27 Sudeste 0 944.6 -0.6 15
2019-07-24 13:00:00 33.5 9 Sudeste 21 Sudeste 0 944.9 -0.3 19
2019-07-24 12:00:00 32.3 5 Este 13 Sudeste 0 945.1 0 22
2019-07-24 11:00:00 29.2 6 Nordeste 10 Nordeste 0 945.2 0.4 29
2019-07-24 10:00:00 26.3 2 Sur 6 Sudoeste 0 945.2 0.4 34
2019-07-24 09:00:00 21.7 2 Este 4 Sudeste 0 945.1 0.3 43
2019-07-24 08:00:00 17.6 0 Calma 8 Oeste 0 944.8 0 53
2019-07-24 07:00:00 16.7 4 Sudoeste 8 Oeste 0 944.8 -0.2 52
2019-07-24 06:00:00 17 5 Oeste 7 Oeste 0 944.8 -0.4 51
2019-07-24 05:00:00 18.6 4 Sudoeste 13 Oeste 0 944.8 -0.8 46
2019-07-24 04:00:00 20.3 9 Oeste 15 Oeste 0 945 -0.8 41
2019-07-24 03:00:00 20.2 6 Oeste 12 Oeste 0 945.2 -0.3 34
2019-07-24 02:00:00 21.9 5 Sudoeste 10 Sudoeste 0 945.6 0.4 29
2019-07-24 01:00:00 22.7 6 Oeste 12 Oeste 0 945.8 0.9 27
2019-07-24 00:00:00 23.8 14 Oeste 16 Oeste 0 945.5 1 25
2019-07-23 23:00:00 26.5 3 Oeste 14 Sudoeste 0 945.2 0.6 21
2019-07-23 22:00:00 27.7 12 Sudoeste 19 Sudoeste 0 944.9 0.3 20
2019-07-23 21:00:00 30.2 9 Sur 23 Sur 0 944.5 -0.4 17
2019-07-23 20:00:00 32.6 12 Sur 21 Sur 0 944.6 -0.5 14
2019-07-23 19:00:00 34.3 12 Sudeste 24 Sudeste 0 944.6 -0.9 13
2019-07-23 18:00:00 34.6 13 Sur 32 Sur 0 944.9 -1 13
2019-07-23 17:00:00 34.9 17 Sur 28 Sudoeste 0 945.1 -1.1 12
2019-07-23 16:00:00 35.1 15 Sur 29 Sudeste 0 945.5 -0.9 13
2019-07-23 15:00:00 34.6 15 Sur 30 Sudeste 0 945.9 -0.8 14
2019-07-23 14:00:00 34 14 Sudeste 30 Sudeste 0 946.2 -0.7 15
2019-07-23 13:00:00 32.8 10 Sur 20 Sudeste 0 946.4 -0.6 22
2019-07-23 12:00:00 31 8 Sudeste 19 Este 0 946.7 -0.4 25
2019-07-23 11:00:00 28.3 4 Nordeste 17 Este 0 946.9 0.1 29
2019-07-23 10:00:00 25.9 9 Este 14 Este 0 947 0.3 38
2019-07-23 09:00:00 21.6 0 Calma 6 Nordeste 0 947.1 0.4 53
2019-07-23 08:00:00 17.6 3 Sudoeste 9 Oeste 0 946.8 -0.2 65
2019-07-23 07:00:00 15.8 3 Oeste 8 Oeste 0 946.7 -0.7 68
2019-07-23 06:00:00 16.7 3 Oeste 9 Oeste 0 946.7 -0.8 65
2019-07-23 05:00:00 18.5 8 Oeste 12 Oeste 0 947 -1 62
2019-07-23 04:00:00 18.3 6 Sudoeste 12 Oeste 0 947.4 -0.9 64
2019-07-23 03:00:00 18.9 4 Oeste 11 Oeste 0 947.5 -0.7 62
2019-07-23 02:00:00 20.2 7 Oeste 10 Oeste 0 948 -0.1 58
2019-07-23 01:00:00 22.5 4 Nordeste 12 Nordeste 0 948.3 0.5 54
2019-07-23 00:00:00 23.7 7 Nordeste 15 Nordeste 0 948.2 0.7 51
2019-07-22 23:00:00 25.2 10 Nordeste 16 Norte 0 948.1 0.8 46
2019-07-22 22:00:00 28.3 7 Este 18 Este 0 947.8 0.3 13
2019-07-22 21:00:00 30.3 11 Sudeste 24 Sudeste 0 947.5 -0.4 12
2019-07-22 20:00:00 32.2 15 Sudeste 27 Sudeste 0 947.3 -0.9 9
2019-07-22 19:00:00 33 17 Sudeste 31 Sudeste 0 947.5 -0.9 10
2019-07-22 18:00:00 33.7 16 Sudeste 30 Este 0 947.9 -0.7 9
2019-07-22 17:00:00 34.5 14 Sudeste 31 Sudeste 0 948.2 -0.8 10
2019-07-22 16:00:00 34.1 20 Sur 37 Sudeste 0 948.4 -0.8 10
2019-07-22 15:00:00 34.5 16 Sudeste 36 Sudeste 0 948.6 -0.8 11
2019-07-22 14:00:00 33.3 14 Sudeste 29 Sudeste 0 949 -0.4 15
2019-07-22 13:00:00 31.2 10 Este 22 Este 0 949.2 -0.3 26
2019-07-22 12:00:00 29 9 Este 22 Nordeste 0 949.4 0.1 34
2019-07-22 11:00:00 26.2 12 Nordeste 21 Nordeste 0 949.4 0.4 52
2019-07-22 10:00:00 23.9 11 Nordeste 20 Nordeste 0 949.5 0.8 60
2019-07-22 09:00:00 21.7 12 Nordeste 18 Nordeste 0 949.3 0.7 74
2019-07-22 08:00:00 18.2 3 Sudeste 8 Sudoeste 0 949 0.4 85
2019-07-22 07:00:00 18.4 3 Sur 11 Nordeste 0 948.7 0.2 84
2019-07-22 06:00:00 19.7 8 Nordeste 15 Nordeste 0 948.6 -0.7 84
2019-07-22 05:00:00 20.4 8 Nordeste 14 Nordeste 0 948.6 -1 78
2019-07-22 04:00:00 20.2 8 Nordeste 12 Nordeste 0 948.5 -1.3 75
2019-07-22 03:00:00 20.1 0 Calma 11 Oeste 0 949.3 -0.6 70
2019-07-22 02:00:00 21.2 4 Este 11 Nordeste 0 949.6 0.3 64
2019-07-22 01:00:00 22.6 7 Nordeste 11 Nordeste 0 949.8 1.4 62
2019-07-22 00:00:00 23.2 6 Nordeste 19 Nordeste 0 949.9 2.6 56
2019-07-21 23:00:00 24.4 10 Nordeste 21 Nordeste 0 949.3 2.7 43
2019-07-21 22:00:00 25.3 14 Nordeste 31 Nordeste 0 948.4 1.9 49
2019-07-21 21:00:00 26.9 21 Nordeste 35 Nordeste 0 947.3 0.7 45
2019-07-21 20:00:00 29.4 23 Nordeste 34 Nordeste 0 946.6 -0.1 35
2019-07-21 19:00:00 31 22 Nordeste 38 Nordeste 0 946.5 -0.5 30
2019-07-21 18:00:00 31.8 26 Nordeste 40 Nordeste 0 946.6 -0.5 30
2019-07-21 17:00:00 32.6 27 Nordeste -- -- 0 946.7 -0.8 30
2019-07-21 16:00:00 33.5 15 Nordeste 32 Este 0 947 -0.8 29
2019-07-21 15:00:00 32.2 22 Nordeste 36 Nordeste 0 947.1 -0.4 31
2019-07-21 14:00:00 30.8 21 Nordeste 36 Nordeste 0 947.5 0 37
2019-07-21 13:00:00 29.5 20 Nordeste 33 Nordeste 0 947.8 0.4 40
2019-07-21 12:00:00 28.7 17 Nordeste 28 Este 0 947.5 0.4 39
2019-07-21 11:00:00 26.5 18 Nordeste 29 Nordeste 0 947.5 0.9 47
2019-07-21 10:00:00 24.5 16 Nordeste 26 Nordeste 0 947.4 1 56
2019-07-21 09:00:00 22.2 13 Nordeste 19 Nordeste 0 947.1 1.1 68
2019-07-21 08:00:00 18.1 4 Sudoeste 9 Sudoeste 0 946.6 0.6 78
2019-07-21 07:00:00 17.6 6 Sudoeste 10 Oeste 0 946.4 0.4 75
2019-07-21 06:00:00 17.8 3 Sudoeste 8 Sudoeste 0 946 -0.2 70
2019-07-21 05:00:00 18.8 8 Oeste 12 Oeste 0 946 -0.3 63
2019-07-21 04:00:00 19.1 4 Sudoeste 10 Sudoeste 0 946 -0.6 60
2019-07-21 03:00:00 20.1 7 Oeste 9 Oeste 0 946.2 -0.2 52
2019-07-21 02:00:00 21.7 4 Sudoeste 11 Nordeste 0 946.3 0.1 45
2019-07-21 01:00:00 23.6 5 Oeste 18 Este 0 946.6 1.5 37
2019-07-21 00:00:00 25 9 Este 17 Este 0 946.4 2.2 32
2019-07-20 23:00:00 25.5 5 Este 21 Este 0 946.2 2.6 30
2019-07-20 22:00:00 27.1 9 Este 24 Sudeste 0 945.1 1.9 24
2019-07-20 21:00:00 29.1 9 Sudeste 21 Sur 0 944.2 1.1 24
2019-07-20 20:00:00 31 11 Sur 23 Sudeste 0 943.6 0.6 21
2019-07-20 19:00:00 32.1 15 Sur 26 Sudeste 0 943.2 0.3 21
2019-07-20 18:00:00 33.2 15 Sudeste 29 Sudeste 0 943.1 0 22
2019-07-20 17:00:00 34 18 Sudeste 29 Sudeste 0 943 -0.5 24
2019-07-20 16:00:00 35.2 12 Este 28 Este 0 942.9 -0.5 24
2019-07-20 15:00:00 34.2 10 Este 26 Este 0 943.1 -0.4 25
2019-07-20 14:00:00 33.2 11 Este 24 Este 0 943.5 0.1 24
2019-07-20 13:00:00 32.1 12 Nordeste 22 Nordeste 0 943.4 -0.4 24
2019-07-20 12:00:00 29.6 8 Este 24 Nordeste 0 943.5 0 30
2019-07-20 11:00:00 26.6 14 Nordeste 23 Nordeste 0 943.4 0.3 40
2019-07-20 10:00:00 25.4 10 Nordeste 19 Norte 0 943.8 1 39
2019-07-20 09:00:00 20.8 5 Sudoeste 8 Oeste 0 943.5 0.7 64
2019-07-20 08:00:00 17.6 6 Sudoeste 9 Oeste 0 943.1 0.5 60
2019-07-20 07:00:00 16.8 4 Oeste 12 Oeste 0 942.8 -0.1 58
2019-07-20 06:00:00 17.8 5 Oeste 12 Oeste 0 942.8 -0.6 55
2019-07-20 05:00:00 18.3 4 Oeste 9 Oeste 0 942.6 -0.9 51
2019-07-20 04:00:00 19.9 4 Oeste 10 Oeste 0 942.9 -0.7 49
2019-07-20 03:00:00 21.4 6 Oeste 11 Oeste 0 943.4 0.4 50
2019-07-20 02:00:00 21.9 3 Sudoeste 10 Sudoeste 0 943.5 0.7 58
2019-07-20 01:00:00 22.1 2 Sudeste 11 Nordeste 0 943.6 1.2 58
2019-07-20 00:00:00 21.5 0 Calma 6 Sudoeste 0 943 0.9 45
2019-07-19 23:00:00 23.3 0 Calma 6 Sur 0 942.8 0.8 41
2019-07-19 22:00:00 26 3 Sudeste 15 Sur 0 942.4 0.3 38
2019-07-19 21:00:00 28.2 8 Sur 22 Sur 0 942.1 -0.4 33
2019-07-19 20:00:00 30.3 14 Sudeste 27 Sudeste 0 942 -0.5 28
2019-07-19 19:00:00 32.3 12 Sur 28 Sur 0 942.1 -0.9 21
2019-07-19 18:00:00 33 11 Sudeste 33 Sudeste 0 942.5 -1 18
2019-07-19 17:00:00 33.8 10 Sudeste 27 Sudeste 0 942.5 -1.5 15
2019-07-19 16:00:00 33.9 11 Sudeste 26 Sudeste 0 943 -1.5 18
2019-07-19 15:00:00 33.1 14 Sudeste 27 Sudeste 0 943.5 -1.3 18
2019-07-19 14:00:00 32.7 9 Sur 23 Sudoeste 0 944 -0.8 15
2019-07-19 13:00:00 31 8 Sudeste 19 Sudeste 0 944.5 -0.3 16
2019-07-19 12:00:00 29.4 9 Sudeste 17 Sur 0 944.8 0.4 19
2019-07-19 11:00:00 27.5 8 Sudeste 13 Sudeste 0 944.8 0.8 22
2019-07-19 10:00:00 24.6 5 Nordeste 11 Este 0 944.8 1.2 43
2019-07-19 09:00:00 21.9 3 Nordeste 6 Oeste 0 944.4 1 54
2019-07-19 08:00:00 16.9 4 Sudoeste 10 Sudoeste 0 944 0.4 71
2019-07-19 07:00:00 15.6 5 Sudoeste 12 Oeste 0 943.6 -0.2 70
2019-07-19 06:00:00 17 8 Oeste 13 Oeste 0 943.4 -0.5 65
2019-07-19 05:00:00 17.3 9 Oeste 13 Oeste 0 943.6 -0.4 58
2019-07-19 04:00:00 17.8 6 Oeste 11 Oeste 0 943.8 0 55
2019-07-19 03:00:00 18 4 Oeste 13 Oeste 0 943.9 0.2 53
2019-07-19 02:00:00 19 7 Sudoeste 10 Oeste 0 944 0.6 51
2019-07-19 01:00:00 20.6 3 Oeste 10 Oeste 0 943.8 1.3 46
2019-07-19 00:00:00 22.9 5 Sudoeste 18 Sudoeste 0 943.7 1.6 40